Crestview, FL (32536)

7:53 AM CDT on July 26, 2016 (GMT -0500)
Patton Street | | Change Station

Elev 249 ft 30.77 °N, 86.56 °W | Updated 40 minutes ago

Light Rain
Light Rain Mist
74.7 °F
Feels Like 73 °F
N
2.2
Wind Variable Wind from ENE

Today
High -- | Low -- °F
--% Chance of Precip.
Yesterday
High -- | Low -- °F
Precip. -- in
Pressure 30.02 in
Visibility 2.0 miles
Clouds Few 900 ft
Mostly Cloudy 3400 ft
Overcast 5500 ft
Heat Index 73 °F
Dew Point 72 °F
Humidity 93%
Rainfall 0.33 in
Snow Depth Not available.
6:00 AM 7:44 PM
Waning Gibbous, 55% visible
SPECI KCEW 261246Z AUTO 06004KT 2SM -RA BR FEW009 BKN034 OVC055 24/24 A3002 RMK AO2 VIS 1V5 RAE1159B17 P0007 T02440239
Pressure 30.02 in
Visibility 2.0 miles
Clouds Few 900 ft
Mostly Cloudy 3400 ft
Overcast 5500 ft
Heat Index 73 °F
Dew Point 72 °F
Humidity 93%
Rainfall 0.33 in
Snow Depth Not available.
6:00 AM 7:44 PM
Waning Gibbous, 55% visible
SPECI KCEW 261246Z AUTO 06004KT 2SM -RA BR FEW009 BKN034 OVC055 24/24 A3002 RMK AO2 VIS 1V5 RAE1159B17 P0007 T02440239

10-Day Weather Forecast

Almanac

Astronomy

Jul. 26, 2016 Rise Set
Actual Time
Civil Twilight
Nautical Twilight
Astronomical Twilight
Moon
Length of Visible Light
Length of Day
Tomorrow will be .
, % of the Moon is Illuminated

Today's Extremes

State Highs State Lows

Community

WunderPhotos

Upload Photos

1,927,581 photos uploaded!

WunderBlog® & News

Nearby

Air Quality

  Air Quality AQ Index Pollutant
Not available.

Snow Depth

Station Depth Elevation

Earthquake Activity

City Distance Mag. Time & Date
Minimum magnitude displayed is 2.5.

Coastal Water Temperatures

Place Temperature

Stations

Nearby Weather Stations

Station Location Temp. Windchill Dew Point Humidity Wind Precip. Elev Updated Type
                   

Watches & Warnings

There are currently no watches in effect.